Time;durP1;ratioP1;P1;durP2;ratioP2;P2;SDS_P1;SDS_P2;PMS_P1;PMS_P2;Temp;Humidity;BMP_temperature;BMP_pressure;BME280_temperature;BME280_humidity;BME280_pressure;Samples;Min_cycle;Max_cycle;Signal;HPM_P1;HPM_P2
2022/11/27 00:00:06;;;;;;;851.95;790.63;;;;;;;9.01;77.76;102495.31;692037;28;44338;-64
2022/11/27 00:00:33;;;;;;;818.70;758.35;;;;;;;9.03;77.73;102497.91;690959;28;136181;-64
2022/11/27 00:00:55;;;;;;;835.63;774.83;;;;;;;9.03;77.69;102500.59;694818;28;44392;-64
2022/11/27 00:01:18;;;;;;;829.42;768.83;;;;;;;9.01;77.71;102498.00;695744;28;22377;-64
2022/11/27 00:01:40;;;;;;;820.40;760.10;;;;;;;9.02;77.86;102497.00;692961;28;93089;-64
2022/11/27 00:02:01;;;;;;;828.70;768.13;;;;;;;9.03;78.04;102497.91;695726;28;21536;-64
2022/11/27 00:02:22;;;;;;;824.50;763.92;;;;;;;9.03;77.71;102497.91;692222;28;20521;-64
2022/11/27 00:02:44;;;;;;;834.53;773.75;;;;;;;9.02;77.66;102502.41;691842;28;46325;-64
2022/11/27 00:03:06;;;;;;;843.83;782.83;;;;;;;9.00;77.71;102496.28;665472;28;44542;-64
2022/11/27 00:03:27;;;;;;;834.45;773.80;;;;;;;9.02;78.07;102488.09;691787;28;46320;-64
2022/11/27 00:03:48;;;;;;;835.47;774.65;;;;;;;9.02;78.14;102499.72;691747;28;23567;-64
2022/11/27 00:04:11;;;;;;;835.13;774.20;;;;;;;9.01;77.74;102492.63;690502;28;21357;-64
2022/11/27 00:04:33;;;;;;;830.17;769.45;;;;;;;9.01;78.28;102498.00;690889;28;69274;-64
2022/11/27 00:04:54;;;;;;;835.28;774.38;;;;;;;9.01;77.87;102495.31;692289;28;21425;-64
2022/11/27 00:05:16;;;;;;;811.67;751.47;;;;;;;9.02;77.72;102497.00;693738;28;44369;-64
2022/11/27 00:05:38;;;;;;;838.03;777.22;;;;;;;9.02;78.15;102491.63;694602;28;46391;-64
2022/11/27 00:05:59;;;;;;;851.70;790.40;;;;;;;9.02;78.20;102496.16;694623;28;44398;-64
2022/11/27 00:06:22;;;;;;;839.42;778.53;;;;;;;9.03;77.83;102497.91;695714;28;22411;-64
2022/11/27 00:06:44;;;;;;;833.40;772.78;;;;;;;9.01;78.18;102500.72;694067;28;67487;-64
2022/11/27 00:07:06;;;;;;;830.60;769.88;;;;;;;9.01;77.94;102494.44;694386;28;43946;-64
2022/11/27 00:07:27;;;;;;;825.17;764.60;;;;;;;9.02;77.77;102493.47;694881;28;44279;-64
2022/11/27 00:07:48;;;;;;;835.42;774.67;;;;;;;9.02;78.12;102488.94;695573;28;21362;-64
2022/11/27 00:08:10;;;;;;;828.80;768.17;;;;;;;9.02;77.76;102491.63;668858;28;22415;-64
2022/11/27 00:08:32;;;;;;;833.20;772.47;;;;;;;9.02;78.21;102494.31;694571;28;44362;-64
2022/11/27 00:08:55;;;;;;;839.70;778.75;;;;;;;9.02;78.26;102498.88;694050;28;46339;-64
2022/11/27 00:09:16;;;;;;;836.90;776.00;;;;;;;9.02;78.30;102496.16;693778;28;70308;-64
2022/11/27 00:09:38;;;;;;;843.47;782.47;;;;;;;9.02;78.26;102493.47;694511;28;44319;-64
2022/11/27 00:10:00;;;;;;;812.28;752.22;;;;;;;9.01;78.08;102500.72;695314;28;22474;-64
2022/11/27 00:10:21;;;;;;;829.10;768.55;;;;;;;9.02;78.19;102496.16;691825;28;46550;-64
2022/11/27 00:10:42;;;;;;;851.30;790.17;;;;;;;9.02;78.22;102499.72;692643;28;22423;-64
2022/11/27 00:11:07;;;;;;;833.45;772.80;;;;;;;9.01;78.33;102494.44;692676;28;21548;-64
2022/11/27 00:11:30;;;;;;;825.22;764.60;;;;;;;9.04;78.24;102501.44;691048;28;92148;-64
2022/11/27 00:11:52;;;;;;;831.67;770.92;;;;;;;9.04;77.95;102502.28;693020;28;92288;-64
2022/11/27 00:12:13;;;;;;;819.08;758.70;;;;;;;8.98;78.06;102490.19;695516;28;23472;-64
2022/11/27 00:12:34;;;;;;;821.90;761.58;;;;;;;9.05;78.43;102497.78;695655;28;21549;-64
2022/11/27 00:12:57;;;;;;;830.00;769.42;;;;;;;9.05;78.06;102500.47;695641;28;22484;-64
2022/11/27 00:13:18;;;;;;;839.60;778.72;;;;;;;9.05;78.01;102501.31;693905;28;45274;-64
2022/11/27 00:13:41;;;;;;;828.15;767.42;;;;;;;9.06;78.36;102499.47;694265;28;44445;-64
2022/11/27 00:14:03;;;;;;;822.45;762.00;;;;;;;9.05;78.04;102495.91;693925;28;69483;-64
2022/11/27 00:14:25;;;;;;;843.25;782.17;;;;;;;9.06;78.45;102497.66;694803;28;46125;-64
2022/11/27 00:14:48;;;;;;;831.65;770.85;;;;;;;9.04;78.15;102491.50;695485;28;21411;-64
2022/11/27 00:15:10;;;;;;;825.38;764.75;;;;;;;9.04;77.97;102488.81;692714;28;92249;-65
2022/11/27 00:15:32;;;;;;;817.10;756.78;;;;;;;9.06;78.02;102496.78;694901;28;43658;-65
2022/11/27 00:15:56;;;;;;;816.15;755.80;;;;;;;9.07;78.34;102493.94;694674;28;44412;-65
2022/11/27 00:16:19;;;;;;;836.97;776.00;;;;;;;9.07;78.18;102491.25;692955;28;92254;-65
2022/11/27 00:16:41;;;;;;;834.38;773.53;;;;;;;9.06;78.15;102491.38;693911;28;69335;-65
2022/11/27 00:17:03;;;;;;;829.15;768.65;;;;;;;9.05;77.94;102490.53;694017;28;69265;-65
2022/11/27 00:17:24;;;;;;;817.85;757.75;;;;;;;9.06;77.92;102492.25;695583;28;22244;-65
2022/11/27 00:17:45;;;;;;;833.78;773.15;;;;;;;9.07;77.95;102487.72;695643;28;21540;-64
2022/11/27 00:18:08;;;;;;;826.53;765.92;;;;;;;9.07;77.90;102493.09;668923;28;46308;-65
2022/11/27 00:18:30;;;;;;;826.38;765.65;;;;;;;9.05;77.86;102482.44;692991;28;67499;-65
2022/11/27 00:18:51;;;;;;;839.25;778.25;;;;;;;9.06;77.71;102485.97;695345;28;22393;-65
2022/11/27 00:19:14;;;;;;;836.08;775.17;;;;;;;9.06;78.04;102483.28;694339;28;46287;-65
2022/11/27 00:19:35;;;;;;;804.97;745.05;;;;;;;9.06;78.03;102486.88;694288;28;47584;-65
2022/11/27 00:19:56;;;;;;;821.00;760.65;;;;;;;9.06;77.92;102489.56;695139;28;21190;-65
2022/11/27 00:20:17;;;;;;;835.78;774.90;;;;;;;9.05;77.69;102481.59;694997;28;21545;-65
2022/11/27 00:20:38;;;;;;;832.97;772.10;;;;;;;9.06;77.79;102485.97;693580;28;44393;-65
2022/11/27 00:21:03;;;;;;;812.30;752.03;;;;;;;9.06;77.77;102488.69;695585;28;21529;-65
2022/11/27 00:21:26;;;;;;;840.80;779.78;;;;;;;9.05;77.86;102482.44;693191;28;91970;-65
2022/11/27 00:21:48;;;;;;;834.53;773.75;;;;;;;9.03;77.97;102479.03;690466;28;92131;-65
2022/11/27 00:22:10;;;;;;;827.38;766.75;;;;;;;9.05;77.80;102478.91;695463;28;21312;-65
2022/11/27 00:22:31;;;;;;;827.55;766.97;;;;;;;9.05;78.01;102481.59;690889;28;68798;-64
2022/11/27 00:22:52;;;;;;;834.72;773.92;;;;;;;9.04;77.82;102486.09;692614;28;21513;-64
2022/11/27 00:23:14;;;;;;;831.88;771.10;;;;;;;9.04;77.87;102486.09;691626;28;21555;-64
2022/11/27 00:23:36;;;;;;;833.47;772.70;;;;;;;9.05;78.11;102479.75;689082;28;44291;-64
2022/11/27 00:23:59;;;;;;;833.65;773.08;;;;;;;9.01;78.13;102476.44;689166;28;44433;-64
2022/11/27 00:24:22;;;;;;;831.20;770.70;;;;;;;9.05;77.73;102487.84;689214;28;67523;-64
2022/11/27 00:24:43;;;;;;;825.13;764.63;;;;;;;9.05;77.81;102481.59;690678;28;68438;-64
2022/11/27 00:25:06;;;;;;;842.88;781.60;;;;;;;9.06;78.02;102485.97;691802;28;22404;-64
2022/11/27 00:25:27;;;;;;;849.97;788.63;;;;;;;9.05;78.16;102481.59;692292;28;69409;-64
2022/11/27 00:25:49;;;;;;;831.03;770.33;;;;;;;9.05;77.76;102473.50;694675;28;46362;-64
2022/11/27 00:26:11;;;;;;;841.03;780.03;;;;;;;9.03;78.04;102484.41;695444;28;21556;-64
2022/11/27 00:26:33;;;;;;;833.53;772.70;;;;;;;9.04;77.68;102482.56;694429;28;45373;-64
2022/11/27 00:26:55;;;;;;;817.55;757.25;;;;;;;9.04;77.98;102485.25;693954;28;69405;-64
2022/11/27 00:27:16;;;;;;;817.80;757.53;;;;;;;9.04;77.67;102479.88;694547;28;23464;-64
2022/11/27 00:27:37;;;;;;;829.42;768.83;;;;;;;9.04;77.96;102479.88;695418;28;22182;-64
2022/11/27 00:28:00;;;;;;;832.15;771.45;;;;;;;9.03;77.71;102484.41;694165;28;46272;-64
2022/11/27 00:28:21;;;;;;;822.53;761.97;;;;;;;9.04;77.94;102487.97;693022;28;65017;-64
2022/11/27 00:28:44;;;;;;;820.78;760.30;;;;;;;9.03;77.69;102484.41;693557;28;46346;-64
2022/11/27 00:29:07;;;;;;;823.92;763.33;;;;;;;9.03;78.06;102489.81;693307;28;90680;-64
2022/11/27 00:29:29;;;;;;;831.45;770.72;;;;;;;9.02;77.57;102490.78;695519;28;21352;-64
2022/11/27 00:29:50;;;;;;;846.67;785.53;;;;;;;9.02;77.69;102490.78;693913;28;67398;-64
2022/11/27 00:30:13;;;;;;;841.20;780.22;;;;;;;9.02;77.95;102486.22;695558;28;23429;-64
2022/11/27 00:30:34;;;;;;;827.60;767.00;;;;;;;9.02;77.86;102491.63;694836;28;46466;-64
2022/11/27 00:30:58;;;;;;;826.10;765.53;;;;;;;9.02;77.79;102491.63;695333;28;23563;-64
2022/11/27 00:31:21;;;;;;;818.28;758.08;;;;;;;9.00;77.53;102490.91;692302;28;115136;-64
2022/11/27 00:31:42;;;;;;;826.80;766.25;;;;;;;9.01;77.86;102491.75;693756;28;67515;-64
2022/11/27 00:32:06;;;;;;;837.58;776.72;;;;;;;9.01;77.96;102491.75;695624;28;21332;-64
2022/11/27 00:32:28;;;;;;;833.90;773.13;;;;;;;9.00;77.59;102498.97;693285;28;92414;-64
2022/11/27 00:32:49;;;;;;;829.65;768.92;;;;;;;9.00;77.85;102488.22;692555;28;23356;-64
2022/11/27 00:33:10;;;;;;;847.22;785.95;;;;;;;9.00;77.94;102490.91;666743;28;21532;-64
2022/11/27 00:33:32;;;;;;;833.35;772.65;;;;;;;9.00;77.58;102492.75;692742;28;21486;-64
2022/11/27 00:33:54;;;;;;;824.25;763.85;;;;;;;8.97;77.65;102491.16;691942;28;44536;-64
2022/11/27 00:34:15;;;;;;;834.75;774.05;;;;;;;8.98;77.72;102494.69;691790;28;45320;-64
2022/11/27 00:34:38;;;;;;;825.35;764.80;;;;;;;8.97;77.91;102493.00;691475;28;46332;-64
2022/11/27 00:34:59;;;;;;;835.00;773.83;;;;;;;8.96;77.84;102492.13;688467;28;46368;-64
2022/11/27 00:35:21;;;;;;;842.10;780.88;;;;;;;8.97;77.90;102485.75;692542;28;23493;-64
2022/11/27 00:35:43;;;;;;;819.95;759.65;;;;;;;8.96;77.97;102485.88;691934;28;46291;-64
2022/11/27 00:36:05;;;;;;;823.70;763.25;;;;;;;8.96;77.48;102489.41;688426;28;45271;-64
2022/11/27 00:36:28;;;;;;;832.17;771.40;;;;;;;8.96;77.72;102491.28;690504;28;67354;-64
2022/11/27 00:36:50;;;;;;;807.78;747.67;;;;;;;8.95;77.96;102497.63;691663;28;44467;-64
2022/11/27 00:37:13;;;;;;;842.88;781.72;;;;;;;8.92;77.76;102485.28;691610;28;44526;-64
2022/11/27 00:37:34;;;;;;;841.25;780.33;;;;;;;8.93;77.68;102489.66;690996;28;67532;-64
2022/11/27 00:37:56;;;;;;;828.95;768.38;;;;;;;8.93;78.00;102494.22;693468;28;21384;-64
2022/11/27 00:38:19;;;;;;;822.42;762.20;;;;;;;8.92;77.51;102490.66;694737;28;23386;-64
2022/11/27 00:38:41;;;;;;;829.28;768.78;;;;;;;8.91;78.03;102491.63;693936;28;69307;-64
2022/11/27 00:39:03;;;;;;;833.17;772.45;;;;;;;8.90;77.72;102489.91;694652;28;46322;-64
2022/11/27 00:39:26;;;;;;;838.67;777.72;;;;;;;8.92;77.88;102493.38;694675;28;45415;-64
2022/11/27 00:39:47;;;;;;;812.92;752.70;;;;;;;8.92;78.06;102490.66;693103;28;92272;-64
2022/11/27 00:40:09;;;;;;;837.95;776.97;;;;;;;8.92;78.04;102489.78;695501;28;21334;-64
2022/11/27 00:40:31;;;;;;;831.13;770.45;;;;;;;8.91;77.78;102491.63;694872;28;46263;-64
2022/11/27 00:40:53;;;;;;;835.45;774.60;;;;;;;8.92;78.02;102487.97;695476;28;23592;-64
2022/11/27 00:41:16;;;;;;;816.47;755.95;;;;;;;8.91;77.77;102494.34;693291;28;67527;-64
2022/11/27 00:41:37;;;;;;;847.25;786.03;;;;;;;8.90;77.80;102492.59;693960;28;70468;-64
2022/11/27 00:41:59;;;;;;;851.75;790.47;;;;;;;8.92;77.97;102495.19;695587;28;21528;-64
2022/11/27 00:42:21;;;;;;;843.50;782.50;;;;;;;8.90;77.99;102495.31;695529;28;21569;-64
2022/11/27 00:42:42;;;;;;;836.28;775.38;;;;;;;8.92;78.05;102496.06;694588;28;44457;-64
2022/11/27 00:43:03;;;;;;;818.33;757.85;;;;;;;8.90;78.04;102492.59;674156;28;21532;-64
2022/11/27 00:43:25;;;;;;;822.78;762.20;;;;;;;8.90;77.93;102487.22;694964;28;22532;-64
2022/11/27 00:43:48;;;;;;;830.22;769.58;;;;;;;8.92;78.21;102495.19;694529;28;46344;-64
2022/11/27 00:44:11;;;;;;;832.65;771.85;;;;;;;8.92;77.96;102489.78;693822;28;69393;-64
2022/11/27 00:44:33;;;;;;;829.53;768.85;;;;;;;8.91;77.78;102494.34;693410;28;69352;-64
2022/11/27 00:44:54;;;;;;;830.67;769.95;;;;;;;8.92;78.25;102500.56;694206;28;44154;-64
2022/11/27 00:45:15;;;;;;;838.63;777.65;;;;;;;8.88;77.80;102485.66;694110;28;22460;-64
2022/11/27 00:45:38;;;;;;;853.78;792.53;;;;;;;8.91;77.90;102497.03;694664;28;46444;-64
2022/11/27 00:45:59;;;;;;;844.28;783.20;;;;;;;8.91;77.84;102493.50;694499;28;44608;-65
2022/11/27 00:46:22;;;;;;;845.70;784.55;;;;;;;8.90;78.13;102489.06;695486;28;22417;-64
2022/11/27 00:46:45;;;;;;;824.65;764.10;;;;;;;8.91;78.15;102488.94;693104;28;92342;-64
2022/11/27 00:47:06;;;;;;;833.97;773.15;;;;;;;8.92;77.74;102495.19;694806;28;45086;-64
2022/11/27 00:47:27;;;;;;;818.95;758.55;;;;;;;8.91;77.71;102493.50;695214;28;21690;-64
2022/11/27 00:47:48;;;;;;;831.35;770.60;;;;;;;8.91;78.17;102488.09;694558;28;44158;-64
2022/11/27 00:48:11;;;;;;;840.63;779.65;;;;;;;8.91;78.13;102498.88;668428;28;22396;-64
2022/11/27 00:48:32;;;;;;;834.03;773.25;;;;;;;8.91;77.67;102501.56;691754;28;46104;-64
2022/11/27 00:48:53;;;;;;;832.08;771.40;;;;;;;8.89;77.98;102496.31;691839;28;44384;-64
2022/11/27 00:49:15;;;;;;;838.50;777.60;;;;;;;8.89;77.99;102490.91;693373;28;21535;-64
2022/11/27 00:49:37;;;;;;;836.85;775.85;;;;;;;8.91;78.06;102498.88;694253;28;44153;-64
2022/11/27 00:49:59;;;;;;;829.53;768.83;;;;;;;8.91;78.18;102496.19;694592;28;46287;-64
2022/11/27 00:50:20;;;;;;;827.33;766.73;;;;;;;8.90;78.07;102498.00;695445;28;22490;-64
2022/11/27 00:50:41;;;;;;;836.75;775.95;;;;;;;8.90;77.64;102495.31;694657;28;46397;-64
2022/11/27 00:51:06;;;;;;;830.08;769.33;;;;;;;8.90;78.14;102498.00;695450;28;21547;-64
2022/11/27 00:51:27;;;;;;;815.85;755.55;;;;;;;8.90;78.16;102492.59;692299;28;115188;-64
2022/11/27 00:51:49;;;;;;;829.60;769.08;;;;;;;8.90;78.10;102492.59;695369;28;22412;-64
2022/11/27 00:52:11;;;;;;;844.08;783.15;;;;;;;8.90;77.97;102495.31;694569;28;44542;-64
2022/11/27 00:52:32;;;;;;;833.72;773.05;;;;;;;8.89;77.95;102490.91;694693;28;46332;-64
2022/11/27 00:52:53;;;;;;;810.83;750.70;;;;;;;8.89;77.63;102496.31;695352;28;22433;-64
2022/11/27 00:53:15;;;;;;;810.95;750.85;;;;;;;8.89;77.87;102493.59;668072;28;22403;-64
2022/11/27 00:53:36;;;;;;;836.75;775.92;;;;;;;8.90;78.08;102491.75;691697;28;44148;-64
2022/11/27 00:53:58;;;;;;;834.42;773.60;;;;;;;8.89;77.97;102496.31;692448;28;23457;-64
2022/11/27 00:54:19;;;;;;;832.22;771.45;;;;;;;8.89;78.14;102487.38;694065;28;45103;-64
2022/11/27 00:54:41;;;;;;;842.80;781.78;;;;;;;8.89;77.74;102493.59;694318;28;46751;-64
2022/11/27 00:55:02;;;;;;;836.83;775.78;;;;;;;8.89;78.04;102490.06;694850;28;23694;-64
2022/11/27 00:55:24;;;;;;;836.85;775.97;;;;;;;8.89;77.99;102492.75;694674;28;46265;-64
2022/11/27 00:55:46;;;;;;;829.58;768.83;;;;;;;8.89;78.00;102495.47;694073;28;46406;-64
2022/11/27 00:56:07;;;;;;;816.67;756.17;;;;;;;8.88;77.50;102488.34;695110;28;23386;-64
2022/11/27 00:56:31;;;;;;;816.42;756.17;;;;;;;8.88;77.75;102491.03;694776;28;44369;-64
2022/11/27 00:56:54;;;;;;;830.85;770.17;;;;;;;8.87;78.15;102490.19;693034;28;92276;-64
2022/11/27 00:57:15;;;;;;;816.38;756.10;;;;;;;8.86;77.92;102485.78;694537;28;46215;-64
2022/11/27 00:57:36;;;;;;;821.42;761.00;;;;;;;8.88;77.69;102486.50;692110;28;44360;-64
2022/11/27 00:57:57;;;;;;;831.58;770.80;;;;;;;8.90;78.13;102489.06;692389;28;22333;-64
2022/11/27 00:58:19;;;;;;;821.35;760.92;;;;;;;8.88;78.04;102482.94;691965;28;22371;-64
2022/11/27 00:58:41;;;;;;;813.20;753.17;;;;;;;8.89;78.22;102495.47;692861;28;23434;-64
2022/11/27 00:59:05;;;;;;;816.20;756.00;;;;;;;8.89;78.19;102490.06;692590;28;69393;-66
2022/11/27 00:59:26;;;;;;;825.50;765.00;;;;;;;8.89;78.04;102492.75;692992;28;92720;-65
2022/11/27 00:59:48;;;;;;;836.40;775.55;;;;;;;8.88;77.87;102494.56;695445;28;22135;-65
2022/11/27 01:00:11;;;;;;;835.08;774.20;;;;;;;8.89;78.25;102490.91;694569;28;46548;-64
2022/11/27 01:00:32;;;;;;;833.92;773.15;;;;;;;8.89;78.01;102492.75;693873;28;69265;-64
2022/11/27 01:00:54;;;;;;;831.92;771.17;;;;;;;8.89;78.14;102500.84;695561;28;22360;-64
2022/11/27 01:01:18;;;;;;;839.33;778.42;;;;;;;8.90;78.04;102494.44;694780;28;45210;-64
2022/11/27 01:01:41;;;;;;;841.75;780.80;;;;;;;8.88;78.12;102491.88;693078;28;91917;-64
2022/11/27 01:02:03;;;;;;;843.55;782.58;;;;;;;8.89;77.96;102492.75;690432;28;68154;-64
2022/11/27 01:02:25;;;;;;;834.03;773.22;;;;;;;8.86;78.21;102484.91;691568;28;47601;-64
2022/11/27 01:02:46;;;;;;;833.17;772.50;;;;;;;8.88;77.91;102491.03;691796;28;45087;-64
2022/11/27 01:03:08;;;;;;;831.72;770.97;;;;;;;8.86;78.21;102488.47;691739;28;22396;-64
2022/11/27 01:03:29;;;;;;;834.42;773.63;;;;;;;8.88;78.05;102493.72;692635;28;21529;-64
2022/11/27 01:03:52;;;;;;;828.10;767.58;;;;;;;8.86;78.25;102483.06;692945;28;22418;-64
2022/11/27 01:04:14;;;;;;;826.33;765.60;;;;;;;8.86;77.85;102484.91;694077;28;46218;-64
2022/11/27 01:04:35;;;;;;;838.70;777.78;;;;;;;8.84;78.20;102483.19;694619;28;45237;-64
2022/11/27 01:04:56;;;;;;;846.95;785.47;;;;;;;8.84;78.05;102485.88;693817;28;44438;-64
2022/11/27 01:05:19;;;;;;;820.60;760.00;;;;;;;8.86;78.22;102485.78;695463;28;23449;-64
2022/11/27 01:05:40;;;;;;;829.20;768.75;;;;;;;8.84;78.21;102485.88;693830;28;68434;-64
2022/11/27 01:06:02;;;;;;;824.83;764.47;;;;;;;8.86;77.77;102488.47;695257;28;22156;-64
2022/11/27 01:06:24;;;;;;;849.28;788.05;;;;;;;8.84;77.78;102488.59;694674;28;46720;-64
2022/11/27 01:06:47;;;;;;;850.13;788.85;;;;;;;8.79;78.15;102482.72;694634;28;43784;-64
2022/11/27 01:07:08;;;;;;;834.33;773.40;;;;;;;8.84;78.17;102487.75;694316;28;44386;-64
2022/11/27 01:07:29;;;;;;;832.35;771.60;;;;;;;8.83;78.09;102486.00;694715;28;44408;-64
2022/11/27 01:07:50;;;;;;;822.08;761.65;;;;;;;8.83;78.04;102486.88;695495;28;21617;-64
2022/11/27 01:08:12;;;;;;;844.20;783.00;;;;;;;8.80;77.78;102486.25;668897;28;22411;-64
2022/11/27 01:08:34;;;;;;;846.00;784.85;;;;;;;8.83;78.20;102492.25;694914;28;23313;-64
2022/11/27 01:08:56;;;;;;;819.35;758.97;;;;;;;8.82;77.76;102486.97;694242;28;46251;-64
2022/11/27 01:09:17;;;;;;;818.30;757.92;;;;;;;8.83;78.19;102489.56;694547;28;44350;-64
2022/11/27 01:09:40;;;;;;;829.30;768.70;;;;;;;8.82;78.10;102490.56;695210;28;22379;-64
2022/11/27 01:10:01;;;;;;;840.90;779.92;;;;;;;8.82;77.92;102486.97;693731;28;69230;-64
2022/11/27 01:10:22;;;;;;;832.13;771.30;;;;;;;8.82;78.25;102485.16;695180;28;23543;-64
2022/11/27 01:10:48;;;;;;;838.45;777.50;;;;;;;8.83;78.10;102488.72;695137;28;23501;-64
2022/11/27 01:11:14;;;;;;;825.22;764.65;;;;;;;8.82;77.89;102479.78;691546;28;136475;-64
2022/11/27 01:11:35;;;;;;;839.30;778.38;;;;;;;8.82;78.31;102486.97;691486;28;138688;-64
2022/11/27 01:11:56;;;;;;;845.90;784.78;;;;;;;8.82;77.91;102485.16;695361;28;23493;-64
2022/11/27 01:12:18;;;;;;;834.90;774.03;;;;;;;8.81;78.32;102485.28;694566;28;46285;-64
2022/11/27 01:12:40;;;;;;;835.05;774.35;;;;;;;8.82;77.92;102476.22;695453;28;21523;-64
2022/11/27 01:13:01;;;;;;;849.78;788.67;;;;;;;8.82;78.33;102481.59;693718;28;44402;-64
2022/11/27 01:13:24;;;;;;;829.65;769.10;;;;;;;8.81;78.00;102483.44;694565;28;46280;-64
2022/11/27 01:13:45;;;;;;;833.72;773.00;;;;;;;8.82;77.98;102481.59;694675;28;46221;-64
2022/11/27 01:14:10;;;;;;;832.90;772.20;;;;;;;8.82;77.97;102485.16;693731;28;47454;-64
2022/11/27 01:14:33;;;;;;;836.13;775.17;;;;;;;8.77;78.32;102481.13;692166;28;115139;-64
2022/11/27 01:14:54;;;;;;;825.78;764.92;;;;;;;8.81;77.72;102487.97;694148;28;45317;-64
2022/11/27 01:15:15;;;;;;;826.17;765.47;;;;;;;8.81;78.33;102488.84;694589;28;45068;-64
2022/11/27 01:15:37;;;;;;;824.25;763.75;;;;;;;8.81;78.14;102485.28;695424;28;22396;-64
2022/11/27 01:15:58;;;;;;;833.92;773.13;;;;;;;8.81;78.39;102487.97;695413;28;22216;-64
2022/11/27 01:16:22;;;;;;;832.05;771.38;;;;;;;8.80;78.31;102486.25;694582;28;46278;-64
2022/11/27 01:16:44;;;;;;;810.35;750.15;;;;;;;8.80;78.41;102481.72;689178;28;90378;-64
2022/11/27 01:17:05;;;;;;;818.17;757.80;;;;;;;8.78;78.02;102489.06;691390;28;44194;-64
2022/11/27 01:17:27;;;;;;;823.65;763.15;;;;;;;8.79;78.50;102490.81;692514;28;22400;-64
2022/11/27 01:17:49;;;;;;;830.33;769.67;;;;;;;8.78;78.18;102481.00;691724;28;45267;-64
2022/11/27 01:18:10;;;;;;;829.22;768.50;;;;;;;8.78;78.44;102481.00;664988;28;45373;-64
2022/11/27 01:18:33;;;;;;;809.90;749.85;;;;;;;8.79;78.03;102484.53;691650;28;22475;-64
2022/11/27 01:18:56;;;;;;;822.63;762.15;;;;;;;8.78;78.35;102481.00;690786;28;70400;-64
2022/11/27 01:19:18;;;;;;;837.67;776.90;;;;;;;8.77;78.39;102484.66;690926;28;70213;-64
2022/11/27 01:19:40;;;;;;;829.53;769.05;;;;;;;8.76;78.06;102482.97;690846;28;69258;-64
2022/11/27 01:20:01;;;;;;;812.95;752.78;;;;;;;8.75;78.14;102473.16;692100;28;22397;-64
2022/11/27 01:20:22;;;;;;;830.97;770.33;;;;;;;8.76;78.09;102482.97;695491;28;23462;-64
2022/11/27 01:20:44;;;;;;;833.10;772.40;;;;;;;8.75;78.52;102478.53;694394;28;46381;-64
2022/11/27 01:21:06;;;;;;;821.65;761.25;;;;;;;8.76;78.25;102476.69;695622;28;23387;-64
2022/11/27 01:21:29;;;;;;;836.55;775.72;;;;;;;8.76;78.36;102474.88;694700;28;44386;-64
2022/11/27 01:21:50;;;;;;;836.03;775.08;;;;;;;8.74;78.48;102473.28;692580;28;70228;-64
2022/11/27 01:22:13;;;;;;;818.72;758.28;;;;;;;8.74;78.26;102473.28;694580;28;44370;-64
2022/11/27 01:22:34;;;;;;;839.08;778.15;;;;;;;8.73;78.28;102471.56;694658;28;46265;-64
2022/11/27 01:22:55;;;;;;;837.25;776.40;;;;;;;8.73;78.13;102469.75;695264;28;21541;-64
2022/11/27 01:23:16;;;;;;;825.25;764.75;;;;;;;8.74;78.41;102465.19;693671;28;44438;-65
2022/11/27 01:23:38;;;;;;;818.00;757.67;;;;;;;8.74;78.29;102465.19;695326;28;23444;-64
2022/11/27 01:24:00;;;;;;;830.88;770.25;;;;;;;8.73;78.61;102469.75;695534;28;21498;-64
2022/11/27 01:24:21;;;;;;;840.22;779.22;;;;;;;8.73;78.75;102469.75;693841;28;69167;-64
2022/11/27 01:24:43;;;;;;;827.78;767.17;;;;;;;8.73;78.33;102464.34;695090;28;22378;-64
2022/11/27 01:25:05;;;;;;;831.38;770.53;;;;;;;8.73;78.69;102467.03;694470;28;23331;-64
2022/11/27 01:25:26;;;;;;;835.38;774.53;;;;;;;8.72;78.52;102454.53;694717;28;46432;-64
2022/11/27 01:25:51;;;;;;;834.85;773.88;;;;;;;8.71;78.73;102462.75;695089;28;22415;-64
2022/11/27 01:26:13;;;;;;;845.58;784.53;;;;;;;8.70;78.62;102455.63;692223;28;115165;-64
2022/11/27 01:26:34;;;;;;;831.75;771.17;;;;;;;8.72;78.83;102457.22;694546;28;44395;-64
2022/11/27 01:26:56;;;;;;;816.33;756.20;;;;;;;8.73;78.83;102458.09;694585;28;22217;-64
2022/11/27 01:27:17;;;;;;;847.75;786.55;;;;;;;8.72;78.80;102459.94;694634;28;44336;-64
2022/11/27 01:27:39;;;;;;;829.35;768.75;;;;;;;8.73;78.88;102463.47;692155;28;22390;-64
2022/11/27 01:28:00;;;;;;;835.20;774.40;;;;;;;8.74;78.51;102465.19;690896;28;46355;-64
2022/11/27 01:28:23;;;;;;;837.00;776.15;;;;;;;8.74;78.53;102459.81;692291;28;21482;-64
2022/11/27 01:28:45;;;;;;;833.70;772.95;;;;;;;8.72;78.83;102462.63;690808;28;69227;-64
2022/11/27 01:29:08;;;;;;;824.38;763.88;;;;;;;8.73;78.48;102458.09;691588;28;44384;-64
2022/11/27 01:29:29;;;;;;;829.70;769.03;;;;;;;8.72;78.90;102462.63;691816;28;67732;-64
2022/11/27 01:29:51;;;;;;;835.25;774.45;;;;;;;8.72;78.79;102457.22;694994;28;21553;-64
2022/11/27 01:30:13;;;;;;;821.75;761.20;;;;;;;8.72;78.42;102457.22;694571;28;43734;-64
2022/11/27 01:30:36;;;;;;;831.78;771.05;;;;;;;8.72;78.72;102459.09;693858;28;69385;-64
2022/11/27 01:30:58;;;;;;;833.50;772.65;;;;;;;8.73;78.32;102468.84;694098;28;70174;-64
2022/11/27 01:31:22;;;;;;;836.08;775.13;;;;;;;8.71;78.55;102462.75;695285;28;21563;-64
2022/11/27 01:31:43;;;;;;;821.25;760.85;;;;;;;8.65;78.48;102447.91;692329;28;86911;-64
2022/11/27 01:32:04;;;;;;;827.97;767.33;;;;;;;8.72;78.53;102469.84;695435;28;23486;-64
2022/11/27 01:32:25;;;;;;;837.80;776.88;;;;;;;8.71;78.67;102465.44;691847;28;42151;-64
2022/11/27 01:32:47;;;;;;;832.55;771.75;;;;;;;8.69;78.38;102468.25;692237;28;21539;-64
2022/11/27 01:33:09;;;;;;;821.53;761.13;;;;;;;8.69;78.45;102462.88;665030;28;22131;-64
2022/11/27 01:33:30;;;;;;;838.22;777.40;;;;;;;8.68;78.82;102463.84;688111;28;69184;-64
2022/11/27 01:33:52;;;;;;;828.00;767.53;;;;;;;8.65;78.78;102461.38;689764;28;23291;-64
2022/11/27 01:34:17;;;;;;;828.08;767.50;;;;;;;8.64;78.97;102457.84;689565;28;46326;-64
2022/11/27 01:34:39;;;;;;;822.42;761.88;;;;;;;8.67;78.72;102472.91;691796;28;93239;-64
2022/11/27 01:35:00;;;;;;;825.65;764.72;;;;;;;8.66;78.87;102461.25;687454;28;69891;-64
2022/11/27 01:35:21;;;;;;;831.38;770.55;;;;;;;8.65;78.98;102464.06;692336;28;21625;-64
2022/11/27 01:35:43;;;;;;;835.42;774.72;;;;;;;8.65;78.81;102462.25;692541;28;23493;-64
2022/11/27 01:36:06;;;;;;;827.00;766.38;;;;;;;8.66;78.66;102463.09;690527;28;46243;-64
2022/11/27 01:36:29;;;;;;;838.95;778.00;;;;;;;8.64;78.48;102465.09;693019;28;92288;-64
2022/11/27 01:36:50;;;;;;;839.38;778.42;;;;;;;8.64;78.74;102470.47;694573;28;46378;-64
2022/11/27 01:37:11;;;;;;;841.78;780.75;;;;;;;8.63;78.64;102474.97;695289;28;23485;-64
2022/11/27 01:37:33;;;;;;;829.63;768.85;;;;;;;8.63;78.99;102464.19;695229;28;21538;-64
2022/11/27 01:37:55;;;;;;;835.08;774.20;;;;;;;8.63;79.13;102474.13;693569;28;67540;-64
2022/11/27 01:38:16;;;;;;;820.47;760.05;;;;;;;8.64;79.11;102467.78;694531;28;22373;-64
2022/11/27 01:38:37;;;;;;;832.70;772.03;;;;;;;8.64;78.78;102465.94;695390;28;23471;-64
2022/11/27 01:38:59;;;;;;;839.28;778.42;;;;;;;8.65;79.17;102469.47;694615;28;44100;-64
2022/11/27 01:39:22;;;;;;;836.95;776.13;;;;;;;8.65;79.20;102467.66;695304;28;22377;-64
2022/11/27 01:39:44;;;;;;;824.72;764.20;;;;;;;8.65;78.99;102464.97;692742;28;92281;-64